Ramore, Canada
Current Conditions -  °F | °C
As of 9:00 AM on Thursday 29 Jan 2015 (Local Time) from CYTS Reporting Station
Light Snow Light Snow  
Wind Chill: 23°   Ceiling: 600
Heat Index: 23°   Visibility: 0.75mi
Dew Point: 21°   Wind: 3mph
Humidity: 93%   Direction: 240°WSW
Pressure: 29.77"   Gusts: NA
Location:  48.42°N, 80.32°W
Report Text: CYTS 291400Z 24003KT 200V260 3/4SM -SN VV006 M05/M06 A2977 RMK SN8 /S01/ SLP100
Loading
Personal Weather Stations






























Interactive Weather Map New forecast layout! Learn more

10-Day Weather Forecast

Advertisements
Track Severe Weather on mobile